createdAt,value
2024-03-10T00:01:20.981Z,1.90
2024-03-10T00:03:51.677Z,2.33
2024-03-10T00:06:22.417Z,1.90
2024-03-10T00:08:53.046Z,2.45
2024-03-10T00:11:23.775Z,2.17
2024-03-10T00:13:54.549Z,2.10
2024-03-10T00:16:25.018Z,2.10
2024-03-10T00:18:55.205Z,1.95
2024-03-10T00:21:27.043Z,2.58
2024-03-10T00:23:58.457Z,2.28
2024-03-10T00:26:29.853Z,2.10
2024-03-10T00:29:00.270Z,2.28
2024-03-10T00:31:31.616Z,2.25
2024-03-10T00:34:02.725Z,2.25
2024-03-10T00:36:33.297Z,3.00
2024-03-10T00:39:04.279Z,2.40
2024-03-10T00:41:34.594Z,4.05
2024-03-10T00:44:05.427Z,3.80
2024-03-10T00:46:36.304Z,3.75
2024-03-10T00:49:06.432Z,3.67
2024-03-10T00:51:37.602Z,2.80
2024-03-10T00:54:08.405Z,2.53
2024-03-10T00:56:38.976Z,2.50
2024-03-10T00:59:09.195Z,2.50
2024-03-10T01:01:41.669Z,2.58
2024-03-10T01:04:12.790Z,2.90
2024-03-10T01:06:44.826Z,2.47
2024-03-10T01:09:20.678Z,2.38
2024-03-10T01:11:51.172Z,2.63
2024-03-10T01:14:21.904Z,2.75
2024-03-10T01:16:52.516Z,2.72
2024-03-10T01:19:22.897Z,3.17
2024-03-10T01:21:53.397Z,2.58
2024-03-10T01:24:24.296Z,2.53
2024-03-10T01:26:55.796Z,2.80
2024-03-10T01:29:26.265Z,2.20
2024-03-10T01:31:58.106Z,2.50
2024-03-10T01:34:28.774Z,2.70
2024-03-10T01:36:59.856Z,2.60
2024-03-10T01:39:31.151Z,2.65
2024-03-10T01:42:02.040Z,2.95
2024-03-10T01:44:32.930Z,2.78
2024-03-10T01:47:04.467Z,2.60
2024-03-10T01:49:36.236Z,3.20
2024-03-10T01:52:06.986Z,2.90
2024-03-10T01:54:39.895Z,3.60
2024-03-10T01:57:11.802Z,3.53
2024-03-10T01:59:42.065Z,3.55
2024-03-10T02:02:12.437Z,4.15
2024-03-10T02:04:43.669Z,4.95
2024-03-10T02:07:14.497Z,5.10
2024-03-10T02:09:47.208Z,5.55
2024-03-10T02:12:18.119Z,5.18
2024-03-10T02:15:05.790Z,4.88
2024-03-10T02:17:39.437Z,5.20
2024-03-10T02:20:22.358Z,5.40
2024-03-10T02:22:54.907Z,4.50
2024-03-10T02:25:26.636Z,4.25
2024-03-10T02:28:01.842Z,4.43
2024-03-10T02:30:33.932Z,4.57
2024-03-10T02:33:22.580Z,4.35
2024-03-10T02:36:11.583Z,3.83
2024-03-10T02:39:00.827Z,4.63
2024-03-10T02:41:59.998Z,4.53
2024-03-10T02:44:48.596Z,4.97
2024-03-10T02:47:20.442Z,4.20
2024-03-10T02:49:52.494Z,5.00
2024-03-10T02:52:22.713Z,5.38
2024-03-10T02:54:52.747Z,4.97
2024-03-10T02:57:24.674Z,6.18
2024-03-10T02:59:56.470Z,6.70
2024-03-10T03:02:27.587Z,5.18
2024-03-10T03:04:58.018Z,5.18
2024-03-10T03:07:29.778Z,6.47
2024-03-10T03:10:01.474Z,5.60
2024-03-10T03:12:32.464Z,5.63
2024-03-10T03:15:02.607Z,4.90
2024-03-10T03:17:34.193Z,5.68
2024-03-10T03:20:18.323Z,5.72
2024-03-10T03:22:49.402Z,5.82
2024-03-10T03:25:20.198Z,5.90
2024-03-10T03:27:52.714Z,5.88
2024-03-10T03:30:24.979Z,5.50
2024-03-10T03:32:57.039Z,5.43
2024-03-10T03:35:27.534Z,5.40
2024-03-10T03:37:57.902Z,5.72
2024-03-10T03:40:28.811Z,5.57
2024-03-10T03:42:59.217Z,5.28
2024-03-10T03:45:30.286Z,6.15
2024-03-10T03:48:01.607Z,6.20
2024-03-10T03:50:34.269Z,5.85
2024-03-10T03:53:04.432Z,5.30
2024-03-10T03:55:34.429Z,5.18
2024-03-10T03:58:05.488Z,5.55
2024-03-10T04:00:36.042Z,5.38
2024-03-10T04:03:06.816Z,5.47
2024-03-10T04:05:36.754Z,4.93
2024-03-10T04:08:08.833Z,4.93
2024-03-10T04:10:39.402Z,4.53
2024-03-10T04:13:09.553Z,4.32
2024-03-10T04:15:40.286Z,4.43
2024-03-10T04:18:11.241Z,3.85
2024-03-10T04:20:44.152Z,3.75
2024-03-10T04:23:14.865Z,4.03
2024-03-10T04:25:45.094Z,4.70
2024-03-10T04:28:16.272Z,4.05
2024-03-10T04:30:47.826Z,3.75
2024-03-10T04:33:19.483Z,3.42
2024-03-10T04:35:49.668Z,3.90
2024-03-10T04:38:20.096Z,3.58
2024-03-10T04:40:50.947Z,3.35
2024-03-10T04:43:23.657Z,3.20
2024-03-10T04:45:55.458Z,3.78
2024-03-10T04:48:25.782Z,3.22
2024-03-10T04:50:56.128Z,3.60
2024-03-10T04:53:27.320Z,3.08
2024-03-10T04:55:58.099Z,2.85
2024-03-10T04:58:31.108Z,3.05
2024-03-10T05:01:02.984Z,3.20
2024-03-10T05:03:33.533Z,3.10
2024-03-10T05:06:03.342Z,3.20
2024-03-10T05:08:34.112Z,3.10
2024-03-10T05:11:06.082Z,2.75
2024-03-10T05:13:40.386Z,2.80
2024-03-10T05:16:10.944Z,3.13
2024-03-10T05:18:42.929Z,2.70
2024-03-10T05:21:13.263Z,2.90
2024-03-10T05:23:43.784Z,2.78
2024-03-10T05:26:14.484Z,3.13
2024-03-10T05:28:44.340Z,3.25
2024-03-10T05:31:34.215Z,3.55
2024-03-10T05:34:05.610Z,2.75
2024-03-10T05:36:35.812Z,3.25
2024-03-10T05:39:06.468Z,2.95
2024-03-10T05:41:37.623Z,2.92
2024-03-10T05:44:07.714Z,3.22
2024-03-10T05:46:38.895Z,3.00
2024-03-10T05:49:10.705Z,3.00
2024-03-10T05:51:41.022Z,3.05
2024-03-10T05:54:12.461Z,2.60
2024-03-10T05:56:43.551Z,2.83
2024-03-10T05:59:13.543Z,1.92
2024-03-10T06:01:44.875Z,2.60
2024-03-10T06:04:15.412Z,3.10
2024-03-10T06:06:45.739Z,2.60
2024-03-10T06:09:17.220Z,2.63
2024-03-10T06:11:47.536Z,2.85
2024-03-10T06:14:18.560Z,2.70
2024-03-10T06:16:49.349Z,2.90
2024-03-10T06:19:37.301Z,3.20
2024-03-10T06:22:26.155Z,3.45
2024-03-10T06:25:14.891Z,3.05
2024-03-10T06:27:45.336Z,2.90
2024-03-10T06:30:15.547Z,2.70
2024-03-10T06:32:45.761Z,3.05
2024-03-10T06:35:16.253Z,2.90
2024-03-10T06:37:50.682Z,2.85
2024-03-10T06:40:23.882Z,2.30
2024-03-10T06:42:54.331Z,3.13
2024-03-10T06:45:25.152Z,3.55
2024-03-10T06:47:56.757Z,2.65
2024-03-10T06:50:30.184Z,3.45
2024-03-10T06:53:00.487Z,2.65
2024-03-10T06:55:30.479Z,3.03
2024-03-10T06:58:00.987Z,3.10
2024-03-10T07:00:32.046Z,2.42
2024-03-10T07:03:02.745Z,2.92
2024-03-10T07:05:32.921Z,2.53
2024-03-10T07:08:05.397Z,2.42
2024-03-10T07:10:40.262Z,3.15
2024-03-10T07:13:11.007Z,2.80
2024-03-10T07:15:41.199Z,3.30
2024-03-10T07:18:12.625Z,3.10
2024-03-10T07:20:45.377Z,3.38
2024-03-10T07:23:16.520Z,2.60
2024-03-10T07:25:46.640Z,2.97
2024-03-10T07:28:17.053Z,3.33
2024-03-10T07:30:47.358Z,4.00
2024-03-10T07:33:18.256Z,3.28
2024-03-10T07:35:49.453Z,4.13
2024-03-10T07:38:19.934Z,3.80
2024-03-10T07:40:54.311Z,4.32
2024-03-10T07:43:26.866Z,3.47
2024-03-10T07:45:57.683Z,3.53
2024-03-10T07:48:27.572Z,3.28
2024-03-10T07:50:57.922Z,2.90
2024-03-10T07:53:29.428Z,3.67
2024-03-10T07:56:04.164Z,3.10
2024-03-10T07:58:34.797Z,3.80
2024-03-10T08:01:06.091Z,2.80
2024-03-10T08:03:36.949Z,3.00
2024-03-10T08:06:10.163Z,3.40
2024-03-10T08:08:41.035Z,3.55
2024-03-10T08:11:11.954Z,2.70
2024-03-10T08:13:43.454Z,3.08
2024-03-10T08:16:15.002Z,2.80
2024-03-10T08:18:48.072Z,3.35
2024-03-10T08:21:20.819Z,3.28
2024-03-10T08:23:50.747Z,3.17
2024-03-10T08:26:21.872Z,2.70
2024-03-10T08:28:52.320Z,2.95
2024-03-10T08:31:22.217Z,3.30
2024-03-10T08:33:52.464Z,3.42
2024-03-10T08:36:23.101Z,3.17
2024-03-10T08:38:54.273Z,2.92
2024-03-10T08:41:24.414Z,2.72
2024-03-10T08:43:56.194Z,2.90
2024-03-10T08:46:26.712Z,3.60
2024-03-10T08:48:57.703Z,3.63
2024-03-10T08:51:30.203Z,3.55
2024-03-10T08:54:00.418Z,3.47
2024-03-10T08:56:30.373Z,3.25
2024-03-10T08:59:01.113Z,3.83
2024-03-10T09:01:31.708Z,4.55
2024-03-10T09:04:04.862Z,4.20
2024-03-10T09:06:35.944Z,5.05
2024-03-10T09:09:10.596Z,5.28
2024-03-10T09:11:41.930Z,5.10
2024-03-10T09:14:11.958Z,4.80
2024-03-10T09:16:41.893Z,4.75
2024-03-10T09:19:13.418Z,4.40
2024-03-10T09:21:45.830Z,5.10
2024-03-10T09:24:17.105Z,4.80
2024-03-10T09:26:47.359Z,5.13
2024-03-10T09:29:18.591Z,4.03
2024-03-10T09:31:49.384Z,4.70
2024-03-10T09:34:19.320Z,4.00
2024-03-10T09:36:49.877Z,3.88
2024-03-10T09:39:21.949Z,3.80
2024-03-10T09:41:53.455Z,3.58
2024-03-10T09:44:26.737Z,3.90
2024-03-10T09:46:57.966Z,4.53
2024-03-10T09:49:28.062Z,4.32
2024-03-10T09:51:59.197Z,3.70
2024-03-10T09:54:30.380Z,4.25
2024-03-10T09:57:00.212Z,4.35
2024-03-10T09:59:46.640Z,3.70
2024-03-10T10:02:30.714Z,3.83
2024-03-10T10:05:05.193Z,3.40
2024-03-10T10:07:36.841Z,3.65
2024-03-10T10:10:08.852Z,3.92
2024-03-10T10:12:39.876Z,2.88
2024-03-10T10:15:11.055Z,3.75
2024-03-10T10:17:42.974Z,3.38
2024-03-10T10:20:14.382Z,3.40
2024-03-10T10:22:44.944Z,3.78
2024-03-10T10:25:16.510Z,3.15
2024-03-10T10:27:54.206Z,2.72
2024-03-10T10:30:30.655Z,3.00
2024-03-10T10:33:07.250Z,3.30
2024-03-10T10:35:44.986Z,2.90
2024-03-10T10:38:16.201Z,3.22
2024-03-10T10:40:53.712Z,3.45
2024-03-10T10:43:25.341Z,3.22
2024-03-10T10:45:55.607Z,3.60
2024-03-10T10:48:25.947Z,3.88
2024-03-10T10:50:56.304Z,3.17
2024-03-10T10:53:28.111Z,2.78
2024-03-10T10:56:01.481Z,2.97
2024-03-10T10:58:36.413Z,3.28
2024-03-10T11:01:07.482Z,2.60
2024-03-10T11:03:39.793Z,2.67
2024-03-10T11:06:11.419Z,2.20
2024-03-10T11:08:44.182Z,2.28
2024-03-10T11:11:19.433Z,1.80
2024-03-10T11:13:52.404Z,1.90
2024-03-10T11:16:28.188Z,1.67
2024-03-10T11:19:16.228Z,1.80
2024-03-10T11:21:53.539Z,1.88
2024-03-10T11:24:29.218Z,1.63
2024-03-10T11:27:22.990Z,2.13
2024-03-10T11:29:53.992Z,1.58
2024-03-10T11:32:34.532Z,1.90
2024-03-10T11:35:09.851Z,1.70
2024-03-10T11:37:40.649Z,1.40
2024-03-10T11:40:18.628Z,1.13
2024-03-10T11:42:50.520Z,1.50
2024-03-10T11:45:21.596Z,1.50
2024-03-10T11:47:52.441Z,1.30
2024-03-10T11:50:22.457Z,1.23
2024-03-10T11:52:53.191Z,1.52
2024-03-10T11:55:24.350Z,1.00
2024-03-10T11:57:56.215Z,1.15
2024-03-10T12:00:28.676Z,0.98
2024-03-10T12:02:59.294Z,0.90
2024-03-10T12:05:30.987Z,1.10
2024-03-10T12:08:02.838Z,1.20
2024-03-10T12:10:35.252Z,1.27
2024-03-10T12:13:07.845Z,1.20
2024-03-10T12:15:39.692Z,1.88
2024-03-10T12:18:10.768Z,3.17
2024-03-10T12:20:41.452Z,3.20
2024-03-10T12:23:12.859Z,3.78
2024-03-10T12:25:44.782Z,3.80
2024-03-10T12:28:16.047Z,4.47
2024-03-10T12:30:47.497Z,4.28
2024-03-10T12:33:17.967Z,5.05
2024-03-10T12:35:48.356Z,5.20
2024-03-10T12:38:18.893Z,5.65
2024-03-10T12:40:50.277Z,5.35
2024-03-10T12:43:20.685Z,6.85
2024-03-10T12:45:50.826Z,6.05
2024-03-10T12:48:21.556Z,5.93
2024-03-10T12:50:51.961Z,6.28
2024-03-10T12:53:23.730Z,5.63
2024-03-10T12:55:54.059Z,5.57
2024-03-10T12:58:24.126Z,4.22
2024-03-10T13:00:55.788Z,4.05
2024-03-10T13:03:26.383Z,3.95
2024-03-10T13:05:58.517Z,3.85
2024-03-10T13:08:30.531Z,3.85
2024-03-10T13:11:01.715Z,3.72
2024-03-10T13:13:32.593Z,3.58
2024-03-10T13:16:02.936Z,3.65
2024-03-10T13:18:33.269Z,3.60
2024-03-10T13:21:04.851Z,3.40
2024-03-10T13:23:36.411Z,3.20
2024-03-10T13:26:07.309Z,2.78
2024-03-10T13:28:37.916Z,2.55
2024-03-10T13:31:07.872Z,2.30
2024-03-10T13:33:39.890Z,2.38
2024-03-10T13:36:17.471Z,2.25
2024-03-10T13:38:50.618Z,1.90
2024-03-10T13:41:20.887Z,1.92
2024-03-10T13:43:51.308Z,2.30
2024-03-10T13:46:22.153Z,2.10
2024-03-10T13:48:52.171Z,1.80
2024-03-10T13:51:23.089Z,2.10
2024-03-10T13:53:54.699Z,2.13
2024-03-10T13:56:26.133Z,1.85
2024-03-10T13:58:58.438Z,1.95
2024-03-10T14:01:28.987Z,1.70
2024-03-10T14:03:59.791Z,1.60
2024-03-10T14:06:30.848Z,2.03
2024-03-10T14:09:01.298Z,2.53
2024-03-10T14:11:31.745Z,2.25
2024-03-10T14:14:03.431Z,1.90
2024-03-10T14:16:35.023Z,2.50
2024-03-10T14:19:05.346Z,1.98
2024-03-10T14:21:39.830Z,1.60
2024-03-10T14:24:11.831Z,2.05
2024-03-10T14:26:42.406Z,2.00
2024-03-10T14:29:13.033Z,2.50
2024-03-10T14:31:43.893Z,1.90
2024-03-10T14:34:14.546Z,2.40
2024-03-10T14:36:45.055Z,1.90
2024-03-10T14:39:18.880Z,1.95
2024-03-10T14:41:49.246Z,1.90
2024-03-10T14:44:19.902Z,1.70
2024-03-10T14:46:50.912Z,1.55
2024-03-10T14:49:21.225Z,1.70
2024-03-10T14:51:53.130Z,2.00
2024-03-10T14:54:24.652Z,1.50
2024-03-10T14:56:54.933Z,2.67
2024-03-10T14:59:25.205Z,2.08
2024-03-10T15:01:55.119Z,1.98
2024-03-10T15:04:25.404Z,1.55
2024-03-10T15:06:57.933Z,2.13
2024-03-10T15:09:29.634Z,1.77
2024-03-10T15:11:59.503Z,1.75
2024-03-10T15:14:31.173Z,1.67
2024-03-10T15:17:01.961Z,1.77
2024-03-10T15:19:34.547Z,1.48
2024-03-10T15:22:05.044Z,1.10
2024-03-10T15:24:37.790Z,1.30
2024-03-10T15:27:09.534Z,1.38
2024-03-10T15:29:40.135Z,1.88
2024-03-10T15:32:10.705Z,1.80
2024-03-10T15:34:42.382Z,1.88
2024-03-10T15:37:14.343Z,2.30
2024-03-10T15:39:49.051Z,1.63
2024-03-10T15:42:20.704Z,2.28
2024-03-10T15:44:50.768Z,2.67
2024-03-10T15:47:23.095Z,2.10
2024-03-10T15:49:54.797Z,2.08
2024-03-10T15:52:26.741Z,2.00
2024-03-10T15:54:57.634Z,2.20
2024-03-10T15:57:28.400Z,1.77
2024-03-10T15:59:59.282Z,1.60
2024-03-10T16:02:29.370Z,1.40
2024-03-10T16:04:59.930Z,1.40
2024-03-10T16:07:30.646Z,1.60
2024-03-10T16:10:00.957Z,1.27
2024-03-10T16:12:34.177Z,1.30
2024-03-10T16:15:08.438Z,1.23
2024-03-10T16:17:39.946Z,1.00
2024-03-10T16:20:17.054Z,1.05
2024-03-10T16:22:47.402Z,1.30
2024-03-10T16:25:22.085Z,1.70
2024-03-10T16:27:54.531Z,1.60
2024-03-10T16:30:25.405Z,2.08
2024-03-10T16:32:57.035Z,1.27
2024-03-10T16:35:28.322Z,1.42
2024-03-10T16:38:00.403Z,1.15
2024-03-10T16:40:30.947Z,1.20
2024-03-10T16:43:01.296Z,0.90
2024-03-10T16:45:31.637Z,1.10
2024-03-10T16:48:02.999Z,1.20
2024-03-10T16:50:35.675Z,1.10
2024-03-10T16:53:08.393Z,1.35
2024-03-10T16:55:42.521Z,1.40
2024-03-10T16:58:13.697Z,1.08
2024-03-10T17:00:44.560Z,1.23
2024-03-10T17:03:18.273Z,1.23
2024-03-10T17:05:56.263Z,1.10
2024-03-10T17:08:27.136Z,1.17
2024-03-10T17:10:58.073Z,1.20
2024-03-10T17:13:29.228Z,1.05
2024-03-10T17:16:00.151Z,1.30
2024-03-10T17:18:31.509Z,0.85
2024-03-10T17:21:02.866Z,1.30
2024-03-10T17:23:33.007Z,1.42
2024-03-10T17:26:03.894Z,1.27
2024-03-10T17:28:35.410Z,1.50
2024-03-10T17:31:06.376Z,1.30
2024-03-10T17:33:37.140Z,1.40
2024-03-10T17:36:07.993Z,1.25
2024-03-10T17:38:38.485Z,1.73
2024-03-10T17:41:09.541Z,1.20
2024-03-10T17:43:40.429Z,1.25
2024-03-10T17:46:10.442Z,1.23
2024-03-10T17:48:41.559Z,1.38
2024-03-10T17:51:12.277Z,1.23
2024-03-10T17:53:44.732Z,1.30
2024-03-10T17:56:17.996Z,1.58
2024-03-10T17:58:50.547Z,1.38
2024-03-10T18:01:21.961Z,1.40
2024-03-10T18:03:53.782Z,1.15
2024-03-10T18:06:23.790Z,1.42
2024-03-10T18:08:54.978Z,1.40
2024-03-10T18:11:26.817Z,1.73
2024-03-10T18:13:58.402Z,1.52
2024-03-10T18:16:29.594Z,1.50
2024-03-10T18:19:00.809Z,1.65
2024-03-10T18:21:32.009Z,1.58
2024-03-10T18:24:03.435Z,1.40
2024-03-10T18:26:33.824Z,1.70
2024-03-10T18:29:07.809Z,1.70
2024-03-10T18:31:41.933Z,1.30
2024-03-10T18:34:12.806Z,1.50
2024-03-10T18:36:42.896Z,1.40
2024-03-10T18:39:14.410Z,1.25
2024-03-10T18:41:45.300Z,1.20
2024-03-10T18:44:15.930Z,1.30
2024-03-10T18:46:46.041Z,1.30
2024-03-10T18:49:16.054Z,1.40
2024-03-10T18:51:46.317Z,1.05
2024-03-10T18:54:18.377Z,1.25
2024-03-10T18:56:49.168Z,1.30
2024-03-10T18:59:21.427Z,1.30
2024-03-10T19:01:52.587Z,1.42
2024-03-10T19:04:23.296Z,1.38
2024-03-10T19:06:54.355Z,1.10
2024-03-10T19:09:25.429Z,1.00
2024-03-10T19:11:56.653Z,1.38
2024-03-10T19:14:28.226Z,1.10
2024-03-10T19:17:00.758Z,1.17
2024-03-10T19:19:31.992Z,1.00
2024-03-10T19:22:03.435Z,1.25
2024-03-10T19:24:34.368Z,1.20
2024-03-10T19:27:05.389Z,1.05
2024-03-10T19:29:35.991Z,1.10
2024-03-10T19:32:10.007Z,1.13
2024-03-10T19:34:40.686Z,1.30
2024-03-10T19:37:12.566Z,1.10
2024-03-10T19:39:42.740Z,0.98
2024-03-10T19:42:12.867Z,1.13
2024-03-10T19:44:48.131Z,1.00
2024-03-10T19:47:20.399Z,1.05
2024-03-10T19:49:51.391Z,1.40
2024-03-10T19:52:21.212Z,1.20
2024-03-10T19:54:51.457Z,0.80
2024-03-10T19:57:23.852Z,1.10
2024-03-10T19:59:54.472Z,2.15
2024-03-10T20:02:24.699Z,1.52
2024-03-10T20:04:57.873Z,2.05
2024-03-10T20:07:30.543Z,2.53
2024-03-10T20:10:01.206Z,1.13
2024-03-10T20:12:34.060Z,1.40
2024-03-10T20:15:05.551Z,1.73
2024-03-10T20:17:37.486Z,1.27
2024-03-10T20:20:10.505Z,1.20
2024-03-10T20:22:41.472Z,0.90
2024-03-10T20:25:12.028Z,0.93
2024-03-10T20:27:42.451Z,1.45
2024-03-10T20:30:19.253Z,0.82
2024-03-10T20:32:49.960Z,1.00
2024-03-10T20:35:22.218Z,0.93
2024-03-10T20:37:52.571Z,0.82
2024-03-10T20:40:23.004Z,0.85
2024-03-10T20:42:53.623Z,1.10
2024-03-10T20:45:24.696Z,1.92
2024-03-10T20:47:56.587Z,1.50
2024-03-10T20:50:27.700Z,1.67
2024-03-10T20:52:58.427Z,1.05
2024-03-10T20:55:28.813Z,0.80
2024-03-10T20:57:58.775Z,0.90
2024-03-10T21:00:30.024Z,0.85
2024-03-10T21:03:01.847Z,0.60
2024-03-10T21:05:31.731Z,0.70
2024-03-10T21:08:02.695Z,0.52
2024-03-10T21:10:33.573Z,1.02
2024-03-10T21:13:05.300Z,0.90
2024-03-10T21:15:37.233Z,0.98
2024-03-10T21:18:08.607Z,0.88
2024-03-10T21:20:39.844Z,0.50
2024-03-10T21:23:11.206Z,0.73
2024-03-10T21:25:42.808Z,0.60
2024-03-10T21:28:16.203Z,0.75
2024-03-10T21:30:46.682Z,0.75
2024-03-10T21:33:16.935Z,0.75
2024-03-10T21:35:48.477Z,0.68
2024-03-10T21:38:20.656Z,0.68
2024-03-10T21:40:51.699Z,0.80
2024-03-10T21:43:23.338Z,1.10
2024-03-10T21:45:53.648Z,0.80
2024-03-10T21:48:24.208Z,0.75
2024-03-10T21:50:55.313Z,0.88
2024-03-10T21:53:26.685Z,0.77
2024-03-10T21:55:57.208Z,0.65
2024-03-10T21:58:28.128Z,0.95
2024-03-10T22:00:58.895Z,0.90
2024-03-10T22:03:32.734Z,0.80
2024-03-10T22:06:04.229Z,1.02
2024-03-10T22:08:35.141Z,0.60
2024-03-10T22:11:06.798Z,0.95
2024-03-10T22:13:38.942Z,1.00
2024-03-10T22:16:11.514Z,0.80
2024-03-10T22:18:41.747Z,1.17
2024-03-10T22:21:13.559Z,1.20
2024-03-10T22:23:45.064Z,0.95
2024-03-10T22:26:15.782Z,0.90
2024-03-10T22:28:46.363Z,1.10
2024-03-10T22:31:17.355Z,1.00
2024-03-10T22:33:48.286Z,1.42
2024-03-10T22:36:18.584Z,1.42
2024-03-10T22:38:49.652Z,1.33
2024-03-10T22:41:20.569Z,1.10
2024-03-10T22:43:51.263Z,1.23
2024-03-10T22:46:22.584Z,1.23
2024-03-10T22:48:52.633Z,1.73
2024-03-10T22:51:23.622Z,1.50
2024-03-10T22:53:55.177Z,2.00
2024-03-10T22:56:26.223Z,1.25
2024-03-10T22:58:56.310Z,1.63
2024-03-10T23:01:29.728Z,1.38
2024-03-10T23:04:00.508Z,1.30
2024-03-10T23:06:31.250Z,1.73
2024-03-10T23:09:01.466Z,1.35
2024-03-10T23:11:31.948Z,1.40
2024-03-10T23:14:02.738Z,1.77
2024-03-10T23:16:32.688Z,1.40
2024-03-10T23:19:03.625Z,1.65
2024-03-10T23:21:36.506Z,1.10
2024-03-10T23:24:11.718Z,1.48
2024-03-10T23:29:12.592Z,1.80
2024-03-10T23:31:46.681Z,1.63
2024-03-10T23:34:18.582Z,1.38
2024-03-10T23:36:49.186Z,1.23
2024-03-10T23:39:23.061Z,1.17
2024-03-10T23:41:54.450Z,1.40
2024-03-10T23:44:26.483Z,1.50
2024-03-10T23:46:56.946Z,1.65
2024-03-10T23:49:29.133Z,1.80
2024-03-10T23:52:00.441Z,2.10
2024-03-10T23:54:31.029Z,1.48
2024-03-10T23:57:02.702Z,1.30
2024-03-10T23:59:34.032Z,1.92
